sensor_id;sensor_type;location;lat;lon;timestamp;pressure;altitude;pressure_sealevel;temperature;humidity
61478;BME280;47345;52.334;10.392;2023-04-05T00:00:56;101815.27;;;1.34;67.71
61478;BME280;47345;52.334;10.392;2023-04-05T00:03:27;101808.24;;;1.32;67.59
61478;BME280;47345;52.334;10.392;2023-04-05T00:05:58;101801.56;;;1.28;67.82
61478;BME280;47345;52.334;10.392;2023-04-05T00:08:31;101802.62;;;1.26;68.04
61478;BME280;47345;52.334;10.392;2023-04-05T00:11:02;101797.84;;;1.23;68.06
61478;BME280;47345;52.334;10.392;2023-04-05T00:13:32;101796.90;;;1.21;68.26
61478;BME280;47345;52.334;10.392;2023-04-05T00:16:04;101798.56;;;1.20;68.54
61478;BME280;47345;52.334;10.392;2023-04-05T00:18:35;101793.90;;;1.20;68.35
61478;BME280;47345;52.334;10.392;2023-04-05T00:21:07;101792.83;;;1.17;68.03
61478;BME280;47345;52.334;10.392;2023-04-05T00:23:37;101790.56;;;1.16;68.16
61478;BME280;47345;52.334;10.392;2023-04-05T00:26:09;101795.74;;;1.15;67.79
61478;BME280;47345;52.334;10.392;2023-04-05T00:28:41;101798.55;;;1.13;68.13
61478;BME280;47345;52.334;10.392;2023-04-05T00:31:12;101800.80;;;1.12;67.93
61478;BME280;47345;52.334;10.392;2023-04-05T00:33:43;101799.23;;;1.09;67.72
61478;BME280;47345;52.334;10.392;2023-04-05T00:36:15;101795.88;;;1.06;67.56
61478;BME280;47345;52.334;10.392;2023-04-05T00:38:47;101796.66;;;1.03;67.60
61478;BME280;47345;52.334;10.392;2023-04-05T00:41:17;101798.70;;;1.02;67.69
61478;BME280;47345;52.334;10.392;2023-04-05T00:43:48;101795.91;;;1.01;67.71
61478;BME280;47345;52.334;10.392;2023-04-05T00:46:19;101795.83;;;1.00;67.89
61478;BME280;47345;52.334;10.392;2023-04-05T00:48:50;101792.00;;;0.98;67.97
61478;BME280;47345;52.334;10.392;2023-04-05T00:51:21;101794.30;;;0.96;67.82
61478;BME280;47345;52.334;10.392;2023-04-05T00:53:53;101793.07;;;0.94;67.77
61478;BME280;47345;52.334;10.392;2023-04-05T00:56:24;101795.86;;;0.92;67.87
61478;BME280;47345;52.334;10.392;2023-04-05T00:58:57;101796.98;;;0.89;67.68
61478;BME280;47345;52.334;10.392;2023-04-05T01:01:28;101788.42;;;0.86;67.55
61478;BME280;47345;52.334;10.392;2023-04-05T01:04:00;101786.35;;;0.85;67.76
61478;BME280;47345;52.334;10.392;2023-04-05T01:06:44;101786.36;;;0.85;67.94
61478;BME280;47345;52.334;10.392;2023-04-05T01:09:27;101784.62;;;0.84;68.33
61478;BME280;47345;52.334;10.392;2023-04-05T01:12:06;101784.72;;;0.83;68.24
61478;BME280;47345;52.334;10.392;2023-04-05T01:14:46;101788.11;;;0.81;68.24
61478;BME280;47345;52.334;10.392;2023-04-05T01:17:19;101786.30;;;0.76;68.10
61478;BME280;47345;52.334;10.392;2023-04-05T01:19:52;101789.40;;;0.73;68.14
61478;BME280;47345;52.334;10.392;2023-04-05T01:22:44;101788.20;;;0.70;68.38
61478;BME280;47345;52.334;10.392;2023-04-05T01:25:36;101787.59;;;0.68;68.55
61478;BME280;47345;52.334;10.392;2023-04-05T01:28:39;101788.66;;;0.66;68.95
61478;BME280;47345;52.334;10.392;2023-04-05T01:31:17;101787.34;;;0.65;69.31
61478;BME280;47345;52.334;10.392;2023-04-05T01:33:54;101789.05;;;0.63;69.58
61478;BME280;47345;52.334;10.392;2023-04-05T01:36:32;101785.71;;;0.58;69.22
61478;BME280;47345;52.334;10.392;2023-04-05T01:39:09;101792.08;;;0.56;69.09
61478;BME280;47345;52.334;10.392;2023-04-05T01:41:41;101786.10;;;0.55;69.70
61478;BME280;47345;52.334;10.392;2023-04-05T01:44:11;101780.58;;;0.54;69.79
61478;BME280;47345;52.334;10.392;2023-04-05T01:46:42;101780.29;;;0.53;69.85
61478;BME280;47345;52.334;10.392;2023-04-05T01:49:13;101777.02;;;0.51;69.69
61478;BME280;47345;52.334;10.392;2023-04-05T01:51:44;101775.52;;;0.50;69.85
61478;BME280;47345;52.334;10.392;2023-04-05T01:54:22;101778.96;;;0.50;69.91
61478;BME280;47345;52.334;10.392;2023-04-05T01:56:53;101771.77;;;0.47;70.09
61478;BME280;47345;52.334;10.392;2023-04-05T01:59:25;101770.95;;;0.46;70.20
61478;BME280;47345;52.334;10.392;2023-04-05T02:01:55;101771.92;;;0.45;70.21
61478;BME280;47345;52.334;10.392;2023-04-05T02:04:26;101773.80;;;0.46;70.31
61478;BME280;47345;52.334;10.392;2023-04-05T02:06:56;101772.20;;;0.46;70.66
61478;BME280;47345;52.334;10.392;2023-04-05T02:09:27;101772.92;;;0.46;70.43
61478;BME280;47345;52.334;10.392;2023-04-05T02:11:57;101770.08;;;0.46;70.50
61478;BME280;47345;52.334;10.392;2023-04-05T02:14:27;101766.40;;;0.45;70.73
61478;BME280;47345;52.334;10.392;2023-04-05T02:16:57;101767.14;;;0.44;70.71
61478;BME280;47345;52.334;10.392;2023-04-05T02:19:31;101764.77;;;0.42;70.15
61478;BME280;47345;52.334;10.392;2023-04-05T02:22:09;101768.84;;;0.41;70.49
61478;BME280;47345;52.334;10.392;2023-04-05T02:24:39;101768.86;;;0.38;69.98
61478;BME280;47345;52.334;10.392;2023-04-05T02:27:10;101769.43;;;0.38;70.40
61478;BME280;47345;52.334;10.392;2023-04-05T02:29:40;101774.28;;;0.38;70.22
61478;BME280;47345;52.334;10.392;2023-04-05T02:32:11;101770.70;;;0.37;70.11
61478;BME280;47345;52.334;10.392;2023-04-05T02:34:42;101769.20;;;0.38;70.23
61478;BME280;47345;52.334;10.392;2023-04-05T02:37:12;101772.45;;;0.40;70.21
61478;BME280;47345;52.334;10.392;2023-04-05T02:39:42;101766.39;;;0.42;70.14
61478;BME280;47345;52.334;10.392;2023-04-05T02:42:12;101761.81;;;0.43;70.04
61478;BME280;47345;52.334;10.392;2023-04-05T02:44:43;101758.51;;;0.44;70.32
61478;BME280;47345;52.334;10.392;2023-04-05T02:47:13;101753.32;;;0.44;70.24
61478;BME280;47345;52.334;10.392;2023-04-05T02:49:49;101750.80;;;0.44;70.10
61478;BME280;47345;52.334;10.392;2023-04-05T02:52:19;101752.30;;;0.43;70.04
61478;BME280;47345;52.334;10.392;2023-04-05T02:54:50;101751.20;;;0.44;70.22
61478;BME280;47345;52.334;10.392;2023-04-05T02:57:20;101748.91;;;0.46;70.84
61478;BME280;47345;52.334;10.392;2023-04-05T02:59:50;101745.61;;;0.47;71.07
61478;BME280;47345;52.334;10.392;2023-04-05T03:02:21;101743.84;;;0.46;71.31
61478;BME280;47345;52.334;10.392;2023-04-05T03:04:53;101744.32;;;0.47;71.64
61478;BME280;47345;52.334;10.392;2023-04-05T03:07:24;101744.64;;;0.48;71.95
61478;BME280;47345;52.334;10.392;2023-04-05T03:09:54;101743.67;;;0.49;72.10
61478;BME280;47345;52.334;10.392;2023-04-05T03:12:25;101745.15;;;0.48;71.76
61478;BME280;47345;52.334;10.392;2023-04-05T03:14:56;101746.23;;;0.46;71.53
61478;BME280;47345;52.334;10.392;2023-04-05T03:17:26;101737.14;;;0.45;71.61
61478;BME280;47345;52.334;10.392;2023-04-05T03:19:57;101733.27;;;0.43;71.98
61478;BME280;47345;52.334;10.392;2023-04-05T03:22:28;101733.09;;;0.41;72.19
61478;BME280;47345;52.334;10.392;2023-04-05T03:24:59;101732.98;;;0.40;72.30
61478;BME280;47345;52.334;10.392;2023-04-05T03:27:30;101728.09;;;0.38;72.20
61478;BME280;47345;52.334;10.392;2023-04-05T03:30:01;101722.39;;;0.36;72.05
61478;BME280;47345;52.334;10.392;2023-04-05T03:32:31;101717.46;;;0.32;72.06
61478;BME280;47345;52.334;10.392;2023-04-05T03:35:02;101711.65;;;0.31;72.74
61478;BME280;47345;52.334;10.392;2023-04-05T03:37:32;101711.79;;;0.28;72.45
61478;BME280;47345;52.334;10.392;2023-04-05T03:40:05;101711.14;;;0.25;72.24
61478;BME280;47345;52.334;10.392;2023-04-05T03:42:38;101709.08;;;0.21;72.43
61478;BME280;47345;52.334;10.392;2023-04-05T03:45:10;101709.88;;;0.18;72.60
61478;BME280;47345;52.334;10.392;2023-04-05T03:47:41;101711.85;;;0.15;73.06
61478;BME280;47345;52.334;10.392;2023-04-05T03:50:11;101714.15;;;0.14;73.28
61478;BME280;47345;52.334;10.392;2023-04-05T03:52:41;101714.03;;;0.10;72.80
61478;BME280;47345;52.334;10.392;2023-04-05T03:55:12;101712.59;;;0.08;72.80
61478;BME280;47345;52.334;10.392;2023-04-05T03:57:45;101720.20;;;0.04;72.98
61478;BME280;47345;52.334;10.392;2023-04-05T04:00:17;101716.40;;;-0.02;73.23
61478;BME280;47345;52.334;10.392;2023-04-05T04:02:49;101714.67;;;-0.08;73.73
61478;BME280;47345;52.334;10.392;2023-04-05T04:05:20;101714.00;;;-0.11;74.17
61478;BME280;47345;52.334;10.392;2023-04-05T04:07:51;101712.80;;;-0.14;73.71
61478;BME280;47345;52.334;10.392;2023-04-05T04:10:21;101718.16;;;-0.17;73.73
61478;BME280;47345;52.334;10.392;2023-04-05T04:12:52;101714.25;;;-0.17;74.03
61478;BME280;47345;52.334;10.392;2023-04-05T04:15:22;101713.24;;;-0.18;73.59
61478;BME280;47345;52.334;10.392;2023-04-05T04:17:52;101718.58;;;-0.18;74.23
61478;BME280;47345;52.334;10.392;2023-04-05T04:20:24;101720.73;;;-0.17;74.17
61478;BME280;47345;52.334;10.392;2023-04-05T04:22:55;101722.41;;;-0.18;74.35
61478;BME280;47345;52.334;10.392;2023-04-05T04:25:26;101719.98;;;-0.22;74.34
61478;BME280;47345;52.334;10.392;2023-04-05T04:27:59;101721.67;;;-0.23;74.33
61478;BME280;47345;52.334;10.392;2023-04-05T04:30:30;101723.23;;;-0.22;74.49
61478;BME280;47345;52.334;10.392;2023-04-05T04:33:03;101721.92;;;-0.22;74.25
61478;BME280;47345;52.334;10.392;2023-04-05T04:35:38;101723.65;;;-0.21;74.05
61478;BME280;47345;52.334;10.392;2023-04-05T04:38:08;101723.02;;;-0.19;74.35
61478;BME280;47345;52.334;10.392;2023-04-05T04:40:46;101723.64;;;-0.18;74.31
61478;BME280;47345;52.334;10.392;2023-04-05T04:43:19;101722.98;;;-0.17;74.56
61478;BME280;47345;52.334;10.392;2023-04-05T04:45:55;101721.99;;;-0.15;74.41
61478;BME280;47345;52.334;10.392;2023-04-05T04:48:28;101725.47;;;-0.13;74.23
61478;BME280;47345;52.334;10.392;2023-04-05T04:51:02;101725.88;;;-0.12;74.11
61478;BME280;47345;52.334;10.392;2023-04-05T04:53:33;101721.29;;;-0.10;74.06
61478;BME280;47345;52.334;10.392;2023-04-05T04:56:08;101722.91;;;-0.08;74.11
61478;BME280;47345;52.334;10.392;2023-04-05T04:58:39;101726.89;;;-0.04;74.29
61478;BME280;47345;52.334;10.392;2023-04-05T05:01:09;101730.17;;;0.01;74.68
61478;BME280;47345;52.334;10.392;2023-04-05T05:03:40;101727.13;;;0.05;75.22
61478;BME280;47345;52.334;10.392;2023-04-05T05:06:12;101729.47;;;0.10;75.69
61478;BME280;47345;52.334;10.392;2023-04-05T05:08:46;101727.34;;;0.17;75.94
61478;BME280;47345;52.334;10.392;2023-04-05T05:11:17;101728.23;;;0.24;75.95
61478;BME280;47345;52.334;10.392;2023-04-05T05:13:47;101729.37;;;0.31;75.88
61478;BME280;47345;52.334;10.392;2023-04-05T05:16:22;101730.98;;;0.38;76.03
61478;BME280;47345;52.334;10.392;2023-04-05T05:18:53;101732.73;;;0.44;76.03
61478;BME280;47345;52.334;10.392;2023-04-05T05:21:23;101732.51;;;0.49;76.06
61478;BME280;47345;52.334;10.392;2023-04-05T05:23:55;101730.50;;;0.54;76.27
61478;BME280;47345;52.334;10.392;2023-04-05T05:26:25;101732.47;;;0.59;76.13
61478;BME280;47345;52.334;10.392;2023-04-05T05:28:56;101736.08;;;0.61;76.10
61478;BME280;47345;52.334;10.392;2023-04-05T05:31:29;101741.38;;;0.60;75.98
61478;BME280;47345;52.334;10.392;2023-04-05T05:34:02;101739.31;;;0.61;76.20
61478;BME280;47345;52.334;10.392;2023-04-05T05:36:32;101741.02;;;0.65;76.28
61478;BME280;47345;52.334;10.392;2023-04-05T05:39:03;101744.77;;;0.67;76.30
61478;BME280;47345;52.334;10.392;2023-04-05T05:41:34;101744.27;;;0.69;76.20
61478;BME280;47345;52.334;10.392;2023-04-05T05:44:05;101740.16;;;0.71;76.23
61478;BME280;47345;52.334;10.392;2023-04-05T05:46:35;101740.02;;;0.75;76.29
61478;BME280;47345;52.334;10.392;2023-04-05T05:49:06;101730.23;;;0.81;76.37
61478;BME280;47345;52.334;10.392;2023-04-05T05:51:37;101732.42;;;0.88;76.48
61478;BME280;47345;52.334;10.392;2023-04-05T05:54:07;101732.00;;;0.93;76.38
61478;BME280;47345;52.334;10.392;2023-04-05T05:56:37;101729.66;;;0.98;76.29
61478;BME280;47345;52.334;10.392;2023-04-05T05:59:09;101734.90;;;1.02;76.24
61478;BME280;47345;52.334;10.392;2023-04-05T06:01:40;101728.94;;;1.07;76.22
61478;BME280;47345;52.334;10.392;2023-04-05T06:04:14;101730.63;;;1.13;76.55
61478;BME280;47345;52.334;10.392;2023-04-05T06:06:45;101732.38;;;1.18;76.55
61478;BME280;47345;52.334;10.392;2023-04-05T06:09:17;101735.62;;;1.26;76.61
61478;BME280;47345;52.334;10.392;2023-04-05T06:11:48;101737.00;;;1.31;76.51
61478;BME280;47345;52.334;10.392;2023-04-05T06:14:25;101740.19;;;1.36;76.24
61478;BME280;47345;52.334;10.392;2023-04-05T06:16:57;101735.55;;;1.40;75.91
61478;BME280;47345;52.334;10.392;2023-04-05T06:19:28;101736.80;;;1.44;75.61
61478;BME280;47345;52.334;10.392;2023-04-05T06:21:58;101729.98;;;1.49;75.47
61478;BME280;47345;52.334;10.392;2023-04-05T06:24:29;101734.18;;;1.55;75.71
61478;BME280;47345;52.334;10.392;2023-04-05T06:27:00;101735.66;;;1.61;75.91
61478;BME280;47345;52.334;10.392;2023-04-05T06:29:30;101734.33;;;1.67;75.87
61478;BME280;47345;52.334;10.392;2023-04-05T06:32:01;101736.87;;;1.73;75.74
61478;BME280;47345;52.334;10.392;2023-04-05T06:34:31;101734.48;;;1.78;75.98
61478;BME280;47345;52.334;10.392;2023-04-05T06:37:02;101736.30;;;1.82;75.74
61478;BME280;47345;52.334;10.392;2023-04-05T06:39:32;101735.73;;;1.89;75.98
61478;BME280;47345;52.334;10.392;2023-04-05T06:42:03;101734.77;;;1.95;75.88
61478;BME280;47345;52.334;10.392;2023-04-05T06:44:34;101734.66;;;2.00;75.79
61478;BME280;47345;52.334;10.392;2023-04-05T06:47:04;101733.81;;;2.06;75.72
61478;BME280;47345;52.334;10.392;2023-04-05T06:49:35;101736.34;;;2.13;75.66
61478;BME280;47345;52.334;10.392;2023-04-05T06:52:05;101736.71;;;2.19;75.77
61478;BME280;47345;52.334;10.392;2023-04-05T06:54:37;101733.63;;;2.26;75.88
61478;BME280;47345;52.334;10.392;2023-04-05T06:57:08;101736.86;;;2.32;75.82
61478;BME280;47345;52.334;10.392;2023-04-05T06:59:39;101734.85;;;2.40;76.10
61478;BME280;47345;52.334;10.392;2023-04-05T07:02:09;101735.73;;;2.46;76.26
61478;BME280;47345;52.334;10.392;2023-04-05T07:04:40;101732.38;;;2.54;75.83
61478;BME280;47345;52.334;10.392;2023-04-05T07:07:11;101728.64;;;2.62;75.68
61478;BME280;47345;52.334;10.392;2023-04-05T07:09:42;101730.36;;;2.69;75.66
61478;BME280;47345;52.334;10.392;2023-04-05T07:12:12;101730.29;;;2.77;76.10
61478;BME280;47345;52.334;10.392;2023-04-05T07:14:43;101726.48;;;2.85;75.87
61478;BME280;47345;52.334;10.392;2023-04-05T07:17:14;101725.23;;;2.93;75.55
61478;BME280;47345;52.334;10.392;2023-04-05T07:19:44;101722.55;;;3.02;75.31
61478;BME280;47345;52.334;10.392;2023-04-05T07:22:14;101720.77;;;3.10;75.25
61478;BME280;47345;52.334;10.392;2023-04-05T07:24:46;101718.06;;;3.18;75.30
61478;BME280;47345;52.334;10.392;2023-04-05T07:27:17;101717.10;;;3.27;75.05
61478;BME280;47345;52.334;10.392;2023-04-05T07:29:48;101715.05;;;3.36;74.75
61478;BME280;47345;52.334;10.392;2023-04-05T07:32:18;101714.07;;;3.43;74.66
61478;BME280;47345;52.334;10.392;2023-04-05T07:34:49;101713.16;;;3.54;73.48
61478;BME280;47345;52.334;10.392;2023-04-05T07:37:19;101714.25;;;3.62;72.71
61478;BME280;47345;52.334;10.392;2023-04-05T07:39:50;101713.64;;;3.71;72.31
61478;BME280;47345;52.334;10.392;2023-04-05T07:42:20;101713.31;;;3.78;71.61
61478;BME280;47345;52.334;10.392;2023-04-05T07:44:51;101713.21;;;3.85;71.18
61478;BME280;47345;52.334;10.392;2023-04-05T07:47:23;101715.00;;;3.94;71.51
61478;BME280;47345;52.334;10.392;2023-04-05T07:49:54;101716.13;;;4.01;71.34
61478;BME280;47345;52.334;10.392;2023-04-05T07:52:24;101712.07;;;4.10;71.80
61478;BME280;47345;52.334;10.392;2023-04-05T07:54:55;101715.23;;;4.19;71.65
61478;BME280;47345;52.334;10.392;2023-04-05T07:57:26;101711.80;;;4.27;71.04
61478;BME280;47345;52.334;10.392;2023-04-05T07:59:56;101709.99;;;4.33;70.32
61478;BME280;47345;52.334;10.392;2023-04-05T08:02:27;101710.56;;;4.39;70.52
61478;BME280;47345;52.334;10.392;2023-04-05T08:04:58;101707.51;;;4.44;70.61
61478;BME280;47345;52.334;10.392;2023-04-05T08:07:28;101708.88;;;4.47;70.71
61478;BME280;47345;52.334;10.392;2023-04-05T08:09:59;101710.89;;;4.49;70.40
61478;BME280;47345;52.334;10.392;2023-04-05T08:12:30;101711.41;;;4.51;70.05
61478;BME280;47345;52.334;10.392;2023-04-05T08:15:02;101710.54;;;4.53;70.27
61478;BME280;47345;52.334;10.392;2023-04-05T08:17:33;101708.02;;;4.52;70.03
61478;BME280;47345;52.334;10.392;2023-04-05T08:20:05;101707.71;;;4.52;69.98
61478;BME280;47345;52.334;10.392;2023-04-05T08:22:35;101706.99;;;4.50;69.89
61478;BME280;47345;52.334;10.392;2023-04-05T08:25:07;101703.66;;;4.49;69.96
61478;BME280;47345;52.334;10.392;2023-04-05T08:27:38;101703.73;;;4.47;69.33
61478;BME280;47345;52.334;10.392;2023-04-05T08:30:10;101705.66;;;4.43;69.02
61478;BME280;47345;52.334;10.392;2023-04-05T08:32:41;101703.34;;;4.40;69.42
61478;BME280;47345;52.334;10.392;2023-04-05T08:35:12;101707.11;;;4.39;69.40
61478;BME280;47345;52.334;10.392;2023-04-05T08:37:42;101703.49;;;4.37;69.45
61478;BME280;47345;52.334;10.392;2023-04-05T08:40:16;101708.96;;;4.38;69.57
61478;BME280;47345;52.334;10.392;2023-04-05T08:42:53;101704.98;;;4.40;69.62
61478;BME280;47345;52.334;10.392;2023-04-05T08:45:23;101702.06;;;4.43;69.02
61478;BME280;47345;52.334;10.392;2023-04-05T08:47:54;101702.02;;;4.43;68.61
61478;BME280;47345;52.334;10.392;2023-04-05T08:50:25;101702.09;;;4.45;68.04
61478;BME280;47345;52.334;10.392;2023-04-05T08:52:56;101701.27;;;4.46;68.27
61478;BME280;47345;52.334;10.392;2023-04-05T08:55:26;101698.79;;;4.47;68.68
61478;BME280;47345;52.334;10.392;2023-04-05T08:57:59;101698.73;;;4.48;68.32
61478;BME280;47345;52.334;10.392;2023-04-05T09:00:33;101695.14;;;4.48;68.06
61478;BME280;47345;52.334;10.392;2023-04-05T09:03:04;101695.74;;;4.49;68.13
61478;BME280;47345;52.334;10.392;2023-04-05T09:05:37;101695.87;;;4.49;67.05
61478;BME280;47345;52.334;10.392;2023-04-05T09:08:09;101693.02;;;4.51;66.41
61478;BME280;47345;52.334;10.392;2023-04-05T09:10:40;101692.71;;;4.54;65.64
61478;BME280;47345;52.334;10.392;2023-04-05T09:13:11;101691.65;;;4.57;65.24
61478;BME280;47345;52.334;10.392;2023-04-05T09:15:42;101697.02;;;4.62;64.69
61478;BME280;47345;52.334;10.392;2023-04-05T09:18:13;101694.14;;;4.68;63.87
61478;BME280;47345;52.334;10.392;2023-04-05T09:21:02;101691.29;;;4.73;64.50
61478;BME280;47345;52.334;10.392;2023-04-05T09:23:34;101687.46;;;4.79;64.40
61478;BME280;47345;52.334;10.392;2023-04-05T09:26:17;101686.29;;;4.84;63.21
61478;BME280;47345;52.334;10.392;2023-04-05T09:28:48;101682.43;;;4.88;61.09
61478;BME280;47345;52.334;10.392;2023-04-05T09:31:32;101683.52;;;4.91;60.33
61478;BME280;47345;52.334;10.392;2023-04-05T09:34:04;101681.05;;;4.94;59.50
61478;BME280;47345;52.334;10.392;2023-04-05T09:36:35;101681.87;;;4.96;59.51
61478;BME280;47345;52.334;10.392;2023-04-05T09:39:13;101681.22;;;4.99;59.82
61478;BME280;47345;52.334;10.392;2023-04-05T09:42:04;101678.73;;;5.02;59.52
61478;BME280;47345;52.334;10.392;2023-04-05T09:44:53;101677.64;;;5.07;58.67
61478;BME280;47345;52.334;10.392;2023-04-05T09:47:26;101671.96;;;5.11;58.12
61478;BME280;47345;52.334;10.392;2023-04-05T09:50:00;101673.23;;;5.17;56.65
61478;BME280;47345;52.334;10.392;2023-04-05T09:52:34;101669.93;;;5.27;56.42
61478;BME280;47345;52.334;10.392;2023-04-05T09:55:06;101670.06;;;5.37;56.48
61478;BME280;47345;52.334;10.392;2023-04-05T09:57:39;101669.80;;;5.47;55.59
61478;BME280;47345;52.334;10.392;2023-04-05T10:00:20;101671.59;;;5.56;53.52
61478;BME280;47345;52.334;10.392;2023-04-05T10:02:54;101668.34;;;5.66;52.84
61478;BME280;47345;52.334;10.392;2023-04-05T10:05:27;101668.74;;;5.74;53.76
61478;BME280;47345;52.334;10.392;2023-04-05T10:07:59;101666.28;;;5.83;53.19
61478;BME280;47345;52.334;10.392;2023-04-05T10:10:31;101668.84;;;5.90;53.28
61478;BME280;47345;52.334;10.392;2023-04-05T10:13:08;101668.38;;;5.95;53.05
61478;BME280;47345;52.334;10.392;2023-04-05T10:15:39;101670.30;;;5.97;53.34
61478;BME280;47345;52.334;10.392;2023-04-05T10:18:13;101667.84;;;6.00;52.77
61478;BME280;47345;52.334;10.392;2023-04-05T10:20:49;101660.83;;;6.03;53.03
61478;BME280;47345;52.334;10.392;2023-04-05T10:23:23;101659.49;;;6.06;52.58
61478;BME280;47345;52.334;10.392;2023-04-05T10:26:00;101658.77;;;6.09;52.24
61478;BME280;47345;52.334;10.392;2023-04-05T10:28:35;101656.05;;;6.11;52.52
61478;BME280;47345;52.334;10.392;2023-04-05T10:31:11;101655.33;;;6.15;52.21
61478;BME280;47345;52.334;10.392;2023-04-05T10:34:05;101652.65;;;6.18;51.91
61478;BME280;47345;52.334;10.392;2023-04-05T10:36:38;101646.59;;;6.21;51.29
61478;BME280;47345;52.334;10.392;2023-04-05T10:39:15;101644.95;;;6.25;49.87
61478;BME280;47345;52.334;10.392;2023-04-05T10:41:59;101640.27;;;6.30;50.34
61478;BME280;47345;52.334;10.392;2023-04-05T10:44:32;101636.45;;;6.35;51.38
61478;BME280;47345;52.334;10.392;2023-04-05T10:47:07;101638.83;;;6.40;50.91
61478;BME280;47345;52.334;10.392;2023-04-05T10:49:45;101632.80;;;6.42;50.02
61478;BME280;47345;52.334;10.392;2023-04-05T10:52:17;101628.28;;;6.44;50.58
61478;BME280;47345;52.334;10.392;2023-04-05T10:54:48;101624.03;;;6.46;50.80
61478;BME280;47345;52.334;10.392;2023-04-05T10:57:19;101621.81;;;6.50;50.78
61478;BME280;47345;52.334;10.392;2023-04-05T10:59:52;101617.34;;;6.57;51.53
61478;BME280;47345;52.334;10.392;2023-04-05T11:02:23;101617.34;;;6.66;51.63
61478;BME280;47345;52.334;10.392;2023-04-05T11:04:55;101612.77;;;6.75;50.55
61478;BME280;47345;52.334;10.392;2023-04-05T11:07:26;101612.45;;;6.82;50.06
61478;BME280;47345;52.334;10.392;2023-04-05T11:10:17;101614.19;;;6.91;50.89
61478;BME280;47345;52.334;10.392;2023-04-05T11:13:08;101609.70;;;7.01;51.00
61478;BME280;47345;52.334;10.392;2023-04-05T11:15:39;101607.48;;;7.15;50.72
61478;BME280;47345;52.334;10.392;2023-04-05T11:18:11;101609.97;;;7.26;50.43
61478;BME280;47345;52.334;10.392;2023-04-05T11:20:51;101606.58;;;7.32;49.56
61478;BME280;47345;52.334;10.392;2023-04-05T11:23:24;101603.95;;;7.37;49.30
61478;BME280;47345;52.334;10.392;2023-04-05T11:26:01;101604.27;;;7.42;49.13
61478;BME280;47345;52.334;10.392;2023-04-05T11:28:35;101598.30;;;7.49;49.76
61478;BME280;47345;52.334;10.392;2023-04-05T11:31:18;101600.80;;;7.58;50.29
61478;BME280;47345;52.334;10.392;2023-04-05T11:34:02;101595.81;;;7.67;48.63
61478;BME280;47345;52.334;10.392;2023-04-05T11:36:41;101587.95;;;7.78;48.92
61478;BME280;47345;52.334;10.392;2023-04-05T11:39:30;101587.73;;;7.88;48.12
61478;BME280;47345;52.334;10.392;2023-04-05T11:42:04;101586.02;;;7.98;48.04
61478;BME280;47345;52.334;10.392;2023-04-05T11:44:43;101582.38;;;8.09;47.67
61478;BME280;47345;52.334;10.392;2023-04-05T11:47:17;101580.20;;;8.17;48.22
61478;BME280;47345;52.334;10.392;2023-04-05T11:49:51;101576.63;;;8.23;46.61
61478;BME280;47345;52.334;10.392;2023-04-05T11:52:22;101568.75;;;8.24;46.98
61478;BME280;47345;52.334;10.392;2023-04-05T11:54:53;101562.91;;;8.25;47.13
61478;BME280;47345;52.334;10.392;2023-04-05T11:57:24;101562.95;;;8.26;45.94
61478;BME280;47345;52.334;10.392;2023-04-05T11:59:55;101560.88;;;8.26;46.22
61478;BME280;47345;52.334;10.392;2023-04-05T12:02:25;101563.05;;;8.24;45.19
61478;BME280;47345;52.334;10.392;2023-04-05T12:04:56;101561.59;;;8.22;47.41
61478;BME280;47345;52.334;10.392;2023-04-05T12:07:28;101561.02;;;8.23;46.13
61478;BME280;47345;52.334;10.392;2023-04-05T12:10:05;101554.23;;;8.23;46.33
61478;BME280;47345;52.334;10.392;2023-04-05T12:12:39;101552.77;;;8.25;46.91
61478;BME280;47345;52.334;10.392;2023-04-05T12:15:11;101545.85;;;8.27;46.82
61478;BME280;47345;52.334;10.392;2023-04-05T12:17:45;101541.92;;;8.29;45.88
61478;BME280;47345;52.334;10.392;2023-04-05T12:20:18;101542.75;;;8.32;45.57
61478;BME280;47345;52.334;10.392;2023-04-05T12:22:50;101537.80;;;8.34;46.79
61478;BME280;47345;52.334;10.392;2023-04-05T12:25:21;101534.24;;;8.38;47.14
61478;BME280;47345;52.334;10.392;2023-04-05T12:27:52;101536.42;;;8.43;47.08
61478;BME280;47345;52.334;10.392;2023-04-05T12:30:23;101533.21;;;8.47;46.48
61478;BME280;47345;52.334;10.392;2023-04-05T12:32:54;101535.13;;;8.51;45.63
61478;BME280;47345;52.334;10.392;2023-04-05T12:35:28;101532.42;;;8.54;46.14
61478;BME280;47345;52.334;10.392;2023-04-05T12:38:03;101524.61;;;8.56;45.99
61478;BME280;47345;52.334;10.392;2023-04-05T12:40:36;101518.61;;;8.58;46.50
61478;BME280;47345;52.334;10.392;2023-04-05T12:43:07;101518.19;;;8.60;47.26
61478;BME280;47345;52.334;10.392;2023-04-05T12:45:38;101517.54;;;8.62;47.90
61478;BME280;47345;52.334;10.392;2023-04-05T12:48:12;101517.56;;;8.65;47.75
61478;BME280;47345;52.334;10.392;2023-04-05T12:50:46;101513.16;;;8.67;47.19
61478;BME280;47345;52.334;10.392;2023-04-05T12:53:21;101513.33;;;8.69;46.75
61478;BME280;47345;52.334;10.392;2023-04-05T12:55:53;101506.20;;;8.69;46.05
61478;BME280;47345;52.334;10.392;2023-04-05T12:58:33;101505.45;;;8.70;46.09
61478;BME280;47345;52.334;10.392;2023-04-05T13:01:05;101506.09;;;8.72;47.17
61478;BME280;47345;52.334;10.392;2023-04-05T13:03:36;101502.20;;;8.73;46.38
61478;BME280;47345;52.334;10.392;2023-04-05T13:06:07;101499.51;;;8.72;46.12
61478;BME280;47345;52.334;10.392;2023-04-05T13:08:38;101498.55;;;8.71;45.67
61478;BME280;47345;52.334;10.392;2023-04-05T13:11:09;101494.47;;;8.68;45.82
61478;BME280;47345;52.334;10.392;2023-04-05T13:13:39;101496.22;;;8.68;45.52
61478;BME280;47345;52.334;10.392;2023-04-05T13:16:10;101491.98;;;8.68;46.10
61478;BME280;47345;52.334;10.392;2023-04-05T13:18:41;101489.33;;;8.69;46.24